Time;durP1;ratioP1;P1;durP2;ratioP2;P2;SDS_P1;SDS_P2;PMS_P1;PMS_P2;Temp;Humidity;BMP_temperature;BMP_pressure;BME280_temperature;BME280_humidity;BME280_pressure;Samples;Min_cycle;Max_cycle;Signal;HPM_P1;HPM_P2
2021/08/25 00:00:43;;;;;;;6.80;3.05;;;;;;;13.86;79.69;101254.00;6261966;22;20035;-81
2021/08/25 00:03:10;;;;;;;5.25;3.60;;;;;;;13.84;79.96;101258.56;6251127;22;20418;-82
2021/08/25 00:05:37;;;;;;;8.23;3.95;;;;;;;13.82;80.04;101267.53;6247935;23;20031;-81
2021/08/25 00:08:04;;;;;;;7.20;3.38;;;;;;;13.78;80.20;101261.50;6246274;22;20020;-81
2021/08/25 00:10:31;;;;;;;7.13;3.75;;;;;;;13.76;80.08;101254.50;6246561;22;20016;-81
2021/08/25 00:13:00;;;;;;;8.65;3.33;;;;;;;13.76;80.39;101259.84;6246851;23;20035;-81
2021/08/25 00:15:27;;;;;;;5.55;3.28;;;;;;;13.75;80.48;101261.63;6248175;22;20020;-82
2021/08/25 00:17:53;;;;;;;6.13;3.20;;;;;;;13.74;80.72;101259.91;6250216;22;20071;-82
2021/08/25 00:20:20;;;;;;;5.95;3.38;;;;;;;13.76;80.65;101259.84;6248360;22;20020;-82
2021/08/25 00:22:47;;;;;;;8.32;3.50;;;;;;;13.74;81.15;101257.25;6247667;22;20027;-82
2021/08/25 00:25:16;;;;;;;5.93;3.67;;;;;;;13.74;81.20;101251.91;6249496;22;20533;-81
2021/08/25 00:27:42;;;;;;;5.55;3.00;;;;;;;13.73;81.35;101247.53;6257836;22;20103;-82
2021/08/25 00:30:09;;;;;;;7.57;3.50;;;;;;;13.74;81.54;101241.28;6253756;22;20095;-82
2021/08/25 00:32:36;;;;;;;5.05;3.38;;;;;;;13.73;81.59;101238.66;6254778;22;20106;-83
2021/08/25 00:35:03;;;;;;;5.40;3.30;;;;;;;13.73;81.59;101236.00;6262030;22;20484;-81
2021/08/25 00:37:30;;;;;;;7.82;3.80;;;;;;;13.73;81.36;101238.66;6250495;22;20020;-82
2021/08/25 00:39:56;;;;;;;4.35;3.25;;;;;;;13.72;81.41;101237.81;6246472;22;20040;-81
2021/08/25 00:42:23;;;;;;;5.70;3.78;;;;;;;13.70;81.51;101229.88;6248454;22;20072;-81
2021/08/25 00:44:49;;;;;;;5.45;3.35;;;;;;;13.62;81.61;101229.41;6246754;22;20315;-82
2021/08/25 00:47:16;;;;;;;5.22;3.30;;;;;;;13.70;81.52;101237.00;6246103;22;20020;-82
2021/08/25 00:49:45;;;;;;;5.03;3.42;;;;;;;13.65;81.58;101231.94;6246029;23;20103;-81
2021/08/25 00:52:12;;;;;;;6.25;3.60;;;;;;;13.63;81.62;101232.94;6244015;23;20022;-82
2021/08/25 00:54:39;;;;;;;6.18;3.20;;;;;;;13.60;82.07;101241.91;6245292;22;20405;-82
2021/08/25 00:57:05;;;;;;;5.28;2.97;;;;;;;13.61;82.56;101237.44;6243259;22;20016;-83
2021/08/25 00:59:32;;;;;;;6.22;3.25;;;;;;;13.58;82.14;101230.47;6245197;22;20020;-81
2021/08/25 01:02:03;;;;;;;6.45;3.30;;;;;;;13.56;82.15;101229.66;6246415;22;20446;-82
2021/08/25 01:04:51;;;;;;;5.50;3.42;;;;;;;13.56;82.42;101228.81;6245170;23;20020;-82
2021/08/25 01:07:42;;;;;;;7.90;3.47;;;;;;;13.51;82.21;101228.19;6245469;22;20062;-82
2021/08/25 01:10:29;;;;;;;9.30;3.60;;;;;;;13.43;82.33;101227.66;6247176;22;20095;-82
2021/08/25 01:13:00;;;;;;;5.88;3.20;;;;;;;13.36;82.59;101227.06;6246847;22;20024;-81
2021/08/25 01:15:35;;;;;;;6.90;3.72;;;;;;;13.34;82.93;101226.28;6246164;23;20024;-82
2021/08/25 01:18:04;;;;;;;6.07;3.50;;;;;;;13.32;83.14;101222.81;6246412;22;20028;-81
2021/08/25 01:20:32;;;;;;;7.45;3.70;;;;;;;13.32;83.18;101220.16;6249124;22;20055;-82
2021/08/25 01:23:00;;;;;;;5.68;3.47;;;;;;;13.30;83.57;101222.03;6248908;22;20024;-81
2021/08/25 01:25:30;;;;;;;4.78;3.47;;;;;;;13.31;83.32;101213.13;6255354;22;20341;-82
2021/08/25 01:28:01;;;;;;;5.43;3.72;;;;;;;13.32;83.47;101204.19;6260348;22;20118;-81
2021/08/25 01:30:30;;;;;;;4.43;3.10;;;;;;;13.31;83.02;101211.31;6265420;22;20063;-81
2021/08/25 01:33:00;;;;;;;6.43;3.17;;;;;;;13.32;82.90;101212.19;6266374;22;20130;-81
2021/08/25 01:35:32;;;;;;;6.75;3.53;;;;;;;13.31;82.88;101208.66;6268666;22;20016;-82
2021/08/25 01:38:01;;;;;;;5.68;3.67;;;;;;;13.29;82.57;101201.69;6265994;22;20430;-80
2021/08/25 01:40:27;;;;;;;5.78;3.47;;;;;;;13.28;82.50;101207.91;6257770;22;20075;-80
2021/08/25 01:42:54;;;;;;;5.55;3.60;;;;;;;13.25;83.19;101202.75;6265371;22;20031;-80
2021/08/25 01:45:22;;;;;;;7.78;3.67;;;;;;;13.26;82.77;101205.34;6266617;22;20018;-80
2021/08/25 01:47:48;;;;;;;7.65;3.05;;;;;;;13.24;82.86;101204.53;6266136;22;20040;-81
2021/08/25 01:50:15;;;;;;;5.95;3.45;;;;;;;13.25;82.73;101202.75;6264753;22;20032;-82
2021/08/25 01:52:42;;;;;;;6.55;3.70;;;;;;;13.19;82.36;101195.91;6250576;22;20062;-82
2021/08/25 01:55:09;;;;;;;4.85;3.40;;;;;;;13.23;82.13;101193.97;6247999;22;20020;-81
2021/08/25 01:57:35;;;;;;;7.78;3.35;;;;;;;13.21;81.94;101203.84;6249808;22;20039;-81
2021/08/25 02:00:04;;;;;;;6.70;3.35;;;;;;;13.20;81.63;101196.78;6248891;22;20016;-82
2021/08/25 02:02:31;;;;;;;6.55;3.20;;;;;;;13.18;81.76;101198.66;6247379;22;20015;-82
2021/08/25 02:04:58;;;;;;;5.32;3.13;;;;;;;13.18;82.01;101195.97;6251465;22;20021;-81
2021/08/25 02:07:25;;;;;;;5.05;2.78;;;;;;;13.19;81.60;101197.72;6251950;22;20084;-82
2021/08/25 02:09:52;;;;;;;4.32;2.90;;;;;;;13.19;81.94;101195.06;6259624;22;20047;-81
2021/08/25 02:12:18;;;;;;;9.93;3.30;;;;;;;13.21;81.07;101196.72;6248626;22;20060;-81
2021/08/25 02:14:45;;;;;;;7.15;3.00;;;;;;;13.20;81.23;101199.44;6246251;22;20023;-82
2021/08/25 02:17:12;;;;;;;5.45;3.22;;;;;;;13.23;81.07;101189.50;6246001;22;20030;-82
2021/08/25 02:19:39;;;;;;;4.78;3.08;;;;;;;13.27;80.60;101190.25;6246773;22;20020;-81
2021/08/25 02:22:05;;;;;;;6.25;3.13;;;;;;;13.31;79.89;101190.03;6246630;22;20156;-82
2021/08/25 02:24:32;;;;;;;7.03;3.50;;;;;;;13.30;80.04;101196.28;6245743;22;20095;-81
2021/08/25 02:26:59;;;;;;;5.53;3.00;;;;;;;13.30;79.26;101190.09;6247098;22;20024;-81
2021/08/25 02:29:26;;;;;;;7.90;3.33;;;;;;;13.27;80.05;101187.56;6247090;22;20020;-82
2021/08/25 02:31:53;;;;;;;8.75;3.35;;;;;;;13.29;79.83;101188.38;6246058;22;20020;-81
2021/08/25 02:34:19;;;;;;;7.00;3.20;;;;;;;13.28;79.44;101187.50;6246653;22;20026;-81
2021/08/25 02:36:46;;;;;;;6.38;3.17;;;;;;;13.30;79.20;101190.09;6244728;22;20031;-82
2021/08/25 02:39:12;;;;;;;4.47;2.75;;;;;;;13.26;79.12;101178.72;6245444;23;20020;-81
2021/08/25 02:41:41;;;;;;;6.35;3.10;;;;;;;13.25;79.15;101177.00;6246028;22;20048;-81
2021/08/25 02:44:08;;;;;;;7.70;3.25;;;;;;;13.22;79.51;101179.78;6246751;22;20022;-82
2021/08/25 02:46:34;;;;;;;5.90;3.05;;;;;;;13.22;79.62;101171.81;6244759;22;20044;-82
2021/08/25 02:49:01;;;;;;;6.60;3.38;;;;;;;13.23;79.25;101170.03;6246156;22;20026;-82
2021/08/25 02:51:28;;;;;;;6.32;3.35;;;;;;;13.22;79.03;101169.16;6246303;22;20106;-81
2021/08/25 02:53:54;;;;;;;5.43;2.97;;;;;;;13.21;79.22;101166.59;6252022;22;20373;-82
2021/08/25 02:56:21;;;;;;;8.15;2.83;;;;;;;13.20;79.56;101163.06;6252506;22;20030;-81
2021/08/25 02:58:48;;;;;;;6.20;3.22;;;;;;;13.18;79.43;101164.06;6247823;22;20020;-82
2021/08/25 03:01:14;;;;;;;8.95;3.50;;;;;;;13.14;79.13;101150.00;6245385;22;20027;-81
2021/08/25 03:03:41;;;;;;;6.40;3.17;;;;;;;13.17;79.33;101157.03;6246651;22;20046;-82
2021/08/25 03:06:08;;;;;;;6.60;2.88;;;;;;;13.16;79.21;101150.84;6218908;23;20022;-83
2021/08/25 03:08:38;;;;;;;5.82;3.35;;;;;;;13.14;79.20;101146.50;6244568;22;20026;-82
2021/08/25 03:11:04;;;;;;;6.90;3.30;;;;;;;13.12;79.28;101158.97;6245576;22;20488;-82
2021/08/25 03:13:31;;;;;;;5.30;3.03;;;;;;;13.07;79.12;101153.88;6245343;22;20439;-82
2021/08/25 03:15:58;;;;;;;7.45;3.05;;;;;;;13.05;79.25;101141.59;6243641;22;20028;-81
2021/08/25 03:18:25;;;;;;;4.40;2.58;;;;;;;13.02;79.59;101139.06;6247184;22;20774;-82
2021/08/25 03:20:51;;;;;;;6.97;3.35;;;;;;;13.02;79.64;101141.72;6244527;22;20438;-81
2021/08/25 03:23:18;;;;;;;8.05;3.40;;;;;;;12.97;79.68;101140.13;6245146;22;20385;-82
2021/08/25 03:25:45;;;;;;;5.15;2.85;;;;;;;12.91;79.80;101129.75;6242076;22;20068;-82
2021/08/25 03:28:11;;;;;;;6.45;3.20;;;;;;;12.95;79.77;101131.34;6240662;22;20104;-82
2021/08/25 03:30:38;;;;;;;6.20;2.95;;;;;;;12.94;79.80;101131.44;6243418;22;20020;-81
2021/08/25 03:33:06;;;;;;;5.18;3.30;;;;;;;12.94;79.87;101134.09;6243119;22;20034;-83
2021/08/25 03:35:33;;;;;;;5.07;2.92;;;;;;;12.92;80.03;101131.50;6241721;22;20024;-81
2021/08/25 03:38:00;;;;;;;7.63;3.35;;;;;;;12.89;80.16;101126.34;6242289;22;20031;-82
2021/08/25 03:40:28;;;;;;;7.55;3.00;;;;;;;12.89;79.77;101123.69;6245007;22;20028;-81
2021/08/25 03:42:55;;;;;;;5.78;3.22;;;;;;;12.88;79.61;101131.72;6251653;22;20428;-81
2021/08/25 03:45:21;;;;;;;5.95;3.22;;;;;;;12.86;80.07;101122.94;6252484;23;20022;-82
2021/08/25 03:47:48;;;;;;;4.68;3.05;;;;;;;12.85;79.94;101115.91;6245889;22;20020;-82
2021/08/25 03:50:15;;;;;;;7.10;3.00;;;;;;;12.84;79.92;101123.00;6246131;23;20020;-81
2021/08/25 03:52:41;;;;;;;4.47;2.72;;;;;;;12.82;79.89;101111.59;6249463;22;20171;-81
2021/08/25 03:55:08;;;;;;;6.63;3.00;;;;;;;12.75;80.06;101104.81;6247868;22;20100;-82
2021/08/25 03:57:35;;;;;;;10.57;3.15;;;;;;;12.81;80.37;101111.66;6247507;22;20502;-82
2021/08/25 04:00:02;;;;;;;4.93;2.88;;;;;;;12.81;80.36;101109.84;6248565;22;20026;-81
2021/08/25 04:02:29;;;;;;;7.10;2.78;;;;;;;12.78;80.33;101114.44;6247268;22;20077;-81
2021/08/25 04:04:56;;;;;;;6.10;2.90;;;;;;;12.77;80.62;101105.59;6246664;22;20079;-82
2021/08/25 04:07:22;;;;;;;5.15;3.08;;;;;;;12.78;80.54;101098.50;6246713;23;20115;-81
2021/08/25 04:09:50;;;;;;;5.70;2.75;;;;;;;12.75;80.39;101110.13;6247932;22;20082;-83
2021/08/25 04:12:17;;;;;;;8.40;3.38;;;;;;;12.75;80.36;101112.78;6249086;22;20020;-82
2021/08/25 04:14:43;;;;;;;6.18;3.17;;;;;;;12.74;80.51;101120.84;6248511;22;20210;-82
2021/08/25 04:17:10;;;;;;;10.70;3.72;;;;;;;12.78;81.93;101115.31;6248329;22;20026;-81
2021/08/25 04:19:37;;;;;;;5.88;3.33;;;;;;;12.79;80.97;101114.38;6249722;22;20780;-82
2021/08/25 04:22:03;;;;;;;6.40;3.00;;;;;;;12.77;79.84;101118.88;6260347;22;20064;-82
2021/08/25 04:24:30;;;;;;;4.97;3.03;;;;;;;12.73;80.34;101112.00;6270772;22;20067;-82
2021/08/25 04:26:56;;;;;;;5.72;3.10;;;;;;;12.73;80.89;101114.66;6272530;22;20063;-82
2021/08/25 04:29:23;;;;;;;5.85;3.35;;;;;;;12.74;79.95;101121.72;6259076;22;20027;-81
2021/08/25 04:31:50;;;;;;;6.30;2.88;;;;;;;12.69;80.45;101123.69;6250901;22;20020;-81
2021/08/25 04:34:17;;;;;;;5.45;3.03;;;;;;;12.68;80.56;101116.66;6253607;22;20024;-81
2021/08/25 04:36:43;;;;;;;6.68;2.90;;;;;;;12.68;80.58;101119.31;6265120;22;20076;-82
2021/08/25 04:39:12;;;;;;;5.75;3.38;;;;;;;12.64;80.49;101125.69;6269715;22;20072;-83
2021/08/25 04:41:38;;;;;;;8.05;3.17;;;;;;;12.63;80.64;101123.97;6268780;22;20111;-80
2021/08/25 04:44:06;;;;;;;5.43;3.05;;;;;;;12.67;80.62;101122.03;6267017;22;20084;-79
2021/08/25 04:46:32;;;;;;;5.07;3.17;;;;;;;12.65;80.89;101130.06;6260558;22;20051;-79
2021/08/25 04:49:00;;;;;;;6.45;3.35;;;;;;;12.64;80.56;101123.03;6255564;22;20047;-81
2021/08/25 04:51:34;;;;;;;7.40;3.40;;;;;;;12.66;80.28;101118.50;6253934;22;20030;-83
2021/08/25 04:54:05;;;;;;;5.75;3.03;;;;;;;12.68;80.31;101126.41;6251400;23;20084;-81
2021/08/25 04:56:31;;;;;;;6.70;3.33;;;;;;;12.67;79.82;101106.94;6247055;22;20030;-80
2021/08/25 04:58:58;;;;;;;6.03;3.10;;;;;;;12.68;80.04;101110.47;6247065;22;20012;-80
2021/08/25 05:01:25;;;;;;;6.00;2.97;;;;;;;12.70;79.90;101105.97;6245689;22;20342;-81
2021/08/25 05:03:52;;;;;;;8.13;3.38;;;;;;;12.73;80.20;101116.47;6254792;22;20024;-81
2021/08/25 05:06:18;;;;;;;7.20;3.33;;;;;;;12.76;80.17;101108.31;6248856;22;20020;-81
2021/08/25 05:08:45;;;;;;;6.90;2.75;;;;;;;12.78;79.87;101115.31;6249417;22;20020;-81
2021/08/25 05:11:12;;;;;;;5.43;3.25;;;;;;;12.81;79.94;101111.66;6248529;22;20086;-82
2021/08/25 05:13:41;;;;;;;5.28;2.97;;;;;;;12.87;79.89;101116.72;6249581;22;20027;-81
2021/08/25 05:16:12;;;;;;;7.45;3.10;;;;;;;12.89;79.43;101113.06;6247980;22;20016;-82
2021/08/25 05:18:39;;;;;;;7.75;3.00;;;;;;;12.96;78.92;101111.81;6250153;22;20019;-82
2021/08/25 05:21:06;;;;;;;6.35;3.17;;;;;;;12.96;78.34;101105.63;6250632;22;20377;-81
2021/08/25 05:23:33;;;;;;;6.57;3.28;;;;;;;12.99;78.99;101110.81;6252179;22;20445;-82
2021/08/25 05:26:00;;;;;;;6.75;3.10;;;;;;;13.07;78.66;101110.47;6253261;22;20076;-82
2021/08/25 05:28:27;;;;;;;6.88;3.22;;;;;;;13.17;77.38;101107.38;6250524;22;20024;-82
2021/08/25 05:30:54;;;;;;;8.43;3.58;;;;;;;13.17;77.50;101110.03;6248988;23;20509;-82
2021/08/25 05:33:20;;;;;;;7.25;3.05;;;;;;;13.20;77.75;101114.34;6249450;22;20027;-80
2021/08/25 05:35:47;;;;;;;6.18;3.00;;;;;;;13.25;77.66;101114.97;6255423;22;20020;-80
2021/08/25 05:38:15;;;;;;;5.68;2.95;;;;;;;13.26;77.23;101117.56;6257213;22;20016;-79
2021/08/25 05:40:42;;;;;;;7.78;3.17;;;;;;;13.32;77.08;101119.94;6254515;23;20020;-80
2021/08/25 05:43:09;;;;;;;5.43;3.00;;;;;;;13.37;77.29;101121.53;6247539;22;20416;-81
2021/08/25 05:45:35;;;;;;;5.57;2.90;;;;;;;13.43;76.59;101118.56;6249685;22;20044;-82
2021/08/25 05:48:02;;;;;;;6.15;3.30;;;;;;;13.49;76.45;101127.13;6250848;22;20039;-80
2021/08/25 05:50:29;;;;;;;6.63;3.38;;;;;;;13.54;75.92;101125.09;6255323;22;20035;-81
2021/08/25 05:52:56;;;;;;;6.20;2.70;;;;;;;13.55;75.63;101118.84;6255924;22;20046;-80
2021/08/25 05:55:25;;;;;;;6.35;2.97;;;;;;;13.64;75.51;101125.53;6260090;22;20008;-80
2021/08/25 05:57:53;;;;;;;6.00;2.90;;;;;;;13.67;75.66;101117.41;6254380;22;20016;-81
2021/08/25 06:00:20;;;;;;;4.32;3.00;;;;;;;13.77;75.40;101125.81;6251266;22;20087;-81
2021/08/25 06:02:49;;;;;;;7.53;3.10;;;;;;;13.85;74.84;101123.66;6250564;22;20729;-81
2021/08/25 06:05:18;;;;;;;4.53;2.63;;;;;;;13.93;74.32;101121.47;6249464;22;20023;-81
2021/08/25 06:07:47;;;;;;;6.25;3.00;;;;;;;13.96;73.11;101113.31;6250066;22;20059;-81
2021/08/25 06:10:16;;;;;;;4.72;2.65;;;;;;;13.94;73.31;101105.41;6250148;22;20684;-80
2021/08/25 06:12:46;;;;;;;6.50;3.05;;;;;;;14.03;72.92;101112.06;6224740;23;20051;-80
2021/08/25 06:15:14;;;;;;;5.03;3.10;;;;;;;14.10;72.86;101124.16;6249754;22;20502;-81
2021/08/25 06:17:43;;;;;;;6.13;3.20;;;;;;;14.18;72.25;101121.94;6249021;22;20043;-81
2021/08/25 06:20:10;;;;;;;6.93;2.75;;;;;;;14.25;71.95;101109.19;6248223;23;20175;-81
2021/08/25 06:22:37;;;;;;;5.70;3.05;;;;;;;14.39;71.87;101115.53;6251185;22;20024;-81
2021/08/25 06:25:06;;;;;;;6.82;3.35;;;;;;;14.52;70.81;101112.25;6249371;22;20026;-81
2021/08/25 06:27:33;;;;;;;6.65;3.00;;;;;;;14.53;70.30;101100.66;6250118;22;20026;-80
2021/08/25 06:30:04;;;;;;;5.78;3.00;;;;;;;14.71;70.10;101110.38;6251886;22;20026;-81
2021/08/25 06:32:31;;;;;;;6.30;2.67;;;;;;;14.80;69.84;101109.88;6250236;22;20031;-81
2021/08/25 06:34:58;;;;;;;5.30;2.58;;;;;;;14.95;69.85;101113.56;6252091;22;20068;-79
2021/08/25 06:37:24;;;;;;;5.93;3.15;;;;;;;15.13;68.79;101123.19;6252270;22;20027;-81
2021/08/25 06:39:51;;;;;;;6.78;2.90;;;;;;;15.18;68.07;101096.28;6253184;22;20025;-81
2021/08/25 06:42:18;;;;;;;4.55;2.85;;;;;;;15.44;68.04;101111.69;6254607;22;20022;-81
2021/08/25 06:44:46;;;;;;;4.65;3.03;;;;;;;15.73;66.97;101116.31;6255036;22;20026;-81
2021/08/25 06:47:12;;;;;;;7.00;3.10;;;;;;;16.12;65.62;101110.47;6252273;22;20020;-80
2021/08/25 06:49:41;;;;;;;3.65;2.50;;;;;;;16.44;64.10;101115.72;6254933;22;20055;-81
2021/08/25 06:52:08;;;;;;;5.53;3.30;;;;;;;16.67;63.00;101122.41;6263436;22;20525;-81
2021/08/25 06:54:35;;;;;;;7.85;3.50;;;;;;;16.82;62.99;101110.78;6261860;22;20064;-80
2021/08/25 06:57:04;;;;;;;5.40;2.83;;;;;;;16.94;61.32;101123.38;6261575;23;20024;-80
2021/08/25 06:59:32;;;;;;;5.40;2.87;;;;;;;17.09;61.37;101119.75;6265168;22;20334;-81
2021/08/25 07:01:59;;;;;;;6.10;2.80;;;;;;;17.25;61.20;101113.44;6259802;22;20023;-80
2021/08/25 07:04:26;;;;;;;5.00;3.00;;;;;;;17.51;61.47;101108.13;6260103;22;20021;-79
2021/08/25 07:06:53;;;;;;;5.75;2.85;;;;;;;17.80;60.66;101108.94;6253831;22;20020;-81
2021/08/25 07:09:20;;;;;;;4.97;3.00;;;;;;;18.07;58.83;101108.09;6254924;22;20024;-82
2021/08/25 07:12:01;;;;;;;6.95;2.83;;;;;;;18.03;59.38;101112.78;6262627;22;20028;-80
2021/08/25 07:14:28;;;;;;;3.95;2.88;;;;;;;17.99;59.05;101107.72;6264461;23;20039;-81
2021/08/25 07:16:55;;;;;;;5.75;2.90;;;;;;;18.07;59.56;101105.41;6263980;22;20023;-79
2021/08/25 07:19:21;;;;;;;6.97;2.92;;;;;;;18.24;60.04;101105.13;6264657;22;20020;-82
2021/08/25 07:21:48;;;;;;;8.60;3.88;;;;;;;18.34;60.27;101103.53;6257279;22;20016;-81
2021/08/25 07:24:14;;;;;;;4.78;2.80;;;;;;;18.39;59.56;101105.91;6258243;22;20098;-81
2021/08/25 07:26:41;;;;;;;6.45;2.95;;;;;;;18.37;58.12;101103.34;6257769;22;20020;-82
2021/08/25 07:29:09;;;;;;;6.15;2.80;;;;;;;18.44;58.40;101104.63;6267349;22;20076;-84
2021/08/25 07:31:36;;;;;;;6.45;3.45;;;;;;;18.35;58.40;101102.56;6265911;22;20076;-84
2021/08/25 07:34:04;;;;;;;7.82;3.13;;;;;;;18.35;58.20;101097.22;6267383;22;20074;-83
2021/08/25 07:36:33;;;;;;;6.55;2.83;;;;;;;18.33;58.99;101092.91;6266958;22;20020;-83
2021/08/25 07:39:01;;;;;;;5.53;3.15;;;;;;;18.18;59.27;101089.47;6258894;22;20031;-81
2021/08/25 07:41:28;;;;;;;5.18;2.90;;;;;;;18.08;59.28;101093.72;6259832;22;20031;-85
2021/08/25 07:43:56;;;;;;;4.97;2.85;;;;;;;18.16;60.35;101088.69;6261494;22;20030;-83
2021/08/25 07:46:24;;;;;;;6.03;2.67;;;;;;;18.34;60.75;101095.50;6262423;22;20040;-81
2021/08/25 07:48:51;;;;;;;4.88;2.83;;;;;;;18.52;58.67;101098.75;6253086;22;20024;-84
2021/08/25 07:51:19;;;;;;;7.32;3.03;;;;;;;18.55;59.06;101096.72;6252672;22;20023;-83
2021/08/25 07:53:47;;;;;;;5.85;2.97;;;;;;;18.68;59.42;101101.25;6250072;22;20509;-83
2021/08/25 07:56:14;;;;;;;3.72;2.60;;;;;;;18.72;58.81;101095.59;6252890;22;20024;-83
2021/08/25 07:58:42;;;;;;;5.75;3.30;;;;;;;18.78;59.33;101096.97;6252155;22;20028;-83
2021/08/25 08:01:51;;;;;;;5.28;2.78;;;;;;;18.88;58.61;101088.19;6253520;22;20028;-86
2021/08/25 08:04:57;;;;;;;4.65;3.03;;;;;;;18.81;57.86;101078.81;6219418;22;20032;-85
2021/08/25 08:07:37;;;;;;;5.07;3.00;;;;;;;18.91;58.55;101084.38;6269638;22;20075;-84
2021/08/25 08:10:07;;;;;;;;;;;;;;;19.00;57.14;101078.38;6271935;22;20024;-85
2021/08/25 08:12:35;;;;;;;5.13;2.95;;;;;;;18.91;57.29;101079.03;6268861;22;19920;-84
2021/08/25 08:15:04;;;;;;;7.00;3.20;;;;;;;18.81;57.82;101083.34;6272942;22;20043;-84
2021/08/25 08:17:32;;;;;;;5.83;3.20;;;;;;;18.74;57.59;101082.88;6273033;22;20027;-83
2021/08/25 08:20:05;;;;;;;4.70;3.28;;;;;;;18.71;57.93;101083.13;6272829;22;20024;-83
2021/08/25 08:22:36;;;;;;;6.40;2.47;;;;;;;18.79;57.64;101087.94;6256024;22;20094;-84
2021/08/25 08:25:09;;;;;;;3.88;2.53;;;;;;;18.95;56.85;101083.22;6252477;22;20040;-84
2021/08/25 08:27:39;;;;;;;5.40;3.00;;;;;;;19.04;56.49;101085.25;6249119;22;20027;-85
2021/08/25 08:30:07;;;;;;;7.47;3.10;;;;;;;19.17;55.59;101085.25;6251746;22;20421;-84
2021/08/25 08:32:35;;;;;;;4.45;3.00;;;;;;;19.24;56.15;101081.97;6249397;23;20024;-85
2021/08/25 08:35:08;;;;;;;6.43;3.40;;;;;;;19.20;56.36;101075.09;6250704;22;20020;-84
2021/08/25 08:37:35;;;;;;;7.00;3.20;;;;;;;19.24;53.54;101078.44;6253736;22;20032;-84
2021/08/25 08:40:04;;;;;;;6.45;3.33;;;;;;;19.16;54.60;101083.53;6253440;22;20047;-84
2021/08/25 08:42:33;;;;;;;8.60;3.40;;;;;;;19.13;54.76;101083.72;6252081;22;20078;-85
2021/08/25 08:45:04;;;;;;;5.25;3.58;;;;;;;19.12;55.87;101076.63;6250478;23;20375;-83
2021/08/25 08:47:34;;;;;;;;;;;;;;;19.16;53.59;101083.53;6254169;22;20958;-85
2021/08/25 08:50:05;;;;;;;6.25;3.60;;;;;;;19.09;55.15;101071.50;6252424;23;20664;-84
2021/08/25 08:52:34;;;;;;;8.35;3.70;;;;;;;19.16;55.33;101073.63;6252776;22;20110;-83
2021/08/25 08:55:07;;;;;;;8.32;3.50;;;;;;;19.21;53.93;101074.13;6251688;22;20039;-83
2021/08/25 08:57:36;;;;;;;6.30;3.55;;;;;;;19.09;53.99;101066.13;6194552;23;20020;-84
2021/08/25 09:00:03;;;;;;;4.50;3.42;;;;;;;18.98;54.89;101071.41;6250050;22;20028;-84
2021/08/25 09:02:45;;;;;;;7.18;3.10;;;;;;;18.89;54.64;101071.06;6249654;22;20020;-84
2021/08/25 09:05:25;;;;;;;5.75;3.28;;;;;;;18.88;53.53;101068.53;6251820;22;20024;-84
2021/08/25 09:08:04;;;;;;;5.55;3.03;;;;;;;18.96;53.58;101068.81;6254756;22;20580;-82
2021/08/25 09:10:39;;;;;;;5.10;3.10;;;;;;;18.96;53.61;101071.50;6268714;22;20205;-83
2021/08/25 09:13:09;;;;;;;5.18;2.85;;;;;;;18.99;53.76;101057.88;6264375;22;20031;-83
2021/08/25 09:15:42;;;;;;;5.43;3.20;;;;;;;18.95;54.05;101059.06;6251230;23;20074;-84
2021/08/25 09:18:14;;;;;;;5.55;3.17;;;;;;;18.88;54.82;101057.78;6246559;22;20409;-84
2021/08/25 09:20:44;;;;;;;7.35;3.45;;;;;;;18.88;55.09;101045.22;6245861;23;20111;-83
2021/08/25 09:23:23;;;;;;;4.57;3.40;;;;;;;18.92;54.68;101048.53;6253060;22;20660;-85
2021/08/25 09:25:55;;;;;;;5.15;2.80;;;;;;;18.84;55.01;101024.94;6246805;22;20093;-83
2021/08/25 09:28:30;;;;;;;5.82;3.28;;;;;;;19.10;55.09;101046.34;6248997;22;20031;-86
2021/08/25 09:31:11;;;;;;;5.35;3.03;;;;;;;19.28;53.93;101056.63;6247363;22;20039;-83
2021/08/25 09:33:44;;;;;;;5.47;3.30;;;;;;;19.32;54.40;101043.84;6250767;22;20024;-83
2021/08/25 09:36:15;;;;;;;8.15;3.20;;;;;;;19.33;54.69;101050.94;6248999;22;20110;-84
2021/08/25 09:38:57;;;;;;;6.32;3.63;;;;;;;19.38;53.82;101039.84;6253919;22;20028;-83
2021/08/25 09:41:24;;;;;;;4.75;3.40;;;;;;;19.43;54.12;101040.38;6249190;22;20016;-83
2021/08/25 09:43:52;;;;;;;5.05;3.20;;;;;;;19.38;53.71;101035.31;6250841;22;20099;-84
2021/08/25 09:46:25;;;;;;;5.10;3.65;;;;;;;19.42;53.41;101035.97;6250795;22;20030;-83
2021/08/25 09:48:54;;;;;;;7.97;3.80;;;;;;;19.44;53.03;101025.97;6250474;23;20069;-84
2021/08/25 09:51:44;;;;;;;5.00;3.20;;;;;;;19.45;54.13;101028.53;6250092;22;20442;-85
2021/08/25 09:54:15;;;;;;;8.98;3.88;;;;;;;19.51;53.77;101022.75;6256713;22;20024;-84
2021/08/25 09:56:43;;;;;;;5.32;3.60;;;;;;;19.62;53.61;101032.69;6254194;23;20031;-83
2021/08/25 09:59:13;;;;;;;5.60;3.50;;;;;;;19.68;53.25;101020.59;6247625;22;20087;-84
2021/08/25 10:01:44;;;;;;;4.63;3.33;;;;;;;19.82;53.31;101020.47;6251919;22;20024;-85
2021/08/25 10:04:14;;;;;;;7.38;3.92;;;;;;;19.85;52.64;101022.88;6251202;22;20031;-85
2021/08/25 10:06:56;;;;;;;7.03;3.42;;;;;;;19.96;52.60;101017.56;6261590;22;20094;-83
2021/08/25 10:09:27;;;;;;;4.50;3.40;;;;;;;20.09;53.10;101010.28;6253658;22;20502;-83
2021/08/25 10:11:57;;;;;;;8.23;3.65;;;;;;;20.18;52.26;101009.56;6252220;22;20030;-83
2021/08/25 10:14:36;;;;;;;4.85;3.10;;;;;;;20.22;50.72;101002.97;6256721;22;20027;-84
2021/08/25 10:17:07;;;;;;;6.53;3.70;;;;;;;20.26;48.86;101000.91;6254573;22;20016;-84
2021/08/25 10:19:40;;;;;;;6.22;3.70;;;;;;;20.22;48.31;101000.28;6253419;22;20020;-85
2021/08/25 10:22:18;;;;;;;5.70;3.67;;;;;;;20.39;48.95;100992.78;6258355;22;20020;-84
2021/08/25 10:24:57;;;;;;;5.10;3.38;;;;;;;20.58;49.32;100999.28;6256108;22;20086;-83
2021/08/25 10:27:32;;;;;;;6.15;3.60;;;;;;;20.74;48.81;100989.97;6257930;23;20071;-86
2021/08/25 10:30:14;;;;;;;6.28;3.55;;;;;;;20.88;47.42;100993.28;6255183;22;20034;-82
2021/08/25 10:32:55;;;;;;;5.35;3.45;;;;;;;21.08;46.24;100983.59;6252214;22;20020;-85
2021/08/25 10:35:32;;;;;;;6.18;3.60;;;;;;;21.24;45.23;100981.38;6248995;22;20100;-84
2021/08/25 10:38:19;;;;;;;5.72;3.63;;;;;;;21.38;42.30;100979.38;6251972;22;20093;-86
2021/08/25 10:40:48;;;;;;;7.10;3.28;;;;;;;21.44;42.97;100970.78;6251570;23;20338;-84
2021/08/25 10:43:43;;;;;;;5.68;3.63;;;;;;;21.49;42.23;100976.66;6251464;22;20080;-84
2021/08/25 10:46:13;;;;;;;6.53;3.22;;;;;;;21.48;43.12;100964.16;6255316;22;20016;-83
2021/08/25 10:48:51;;;;;;;5.80;3.53;;;;;;;21.49;43.41;100963.19;6254050;22;20307;-84
2021/08/25 10:51:31;;;;;;;6.50;3.53;;;;;;;21.55;44.20;100971.63;6270608;22;20034;-85
2021/08/25 10:54:14;;;;;;;5.75;3.42;;;;;;;21.58;43.66;100952.47;6244150;22;20028;-84
2021/08/25 10:56:44;;;;;;;5.60;3.35;;;;;;;21.74;43.48;100957.41;6249693;22;20027;-85
2021/08/25 10:59:19;;;;;;;5.97;3.28;;;;;;;21.73;44.47;100949.47;6248561;22;20410;-84
2021/08/25 11:01:55;;;;;;;4.57;3.13;;;;;;;21.79;43.90;100952.50;6251695;23;20020;-84
2021/08/25 11:04:26;;;;;;;6.07;3.42;;;;;;;21.80;44.37;100943.44;6252963;22;20067;-84
2021/08/25 11:07:10;;;;;;;6.28;3.42;;;;;;;21.84;44.55;100942.19;6249624;22;20016;-82
2021/08/25 11:10:02;;;;;;;5.63;3.25;;;;;;;21.66;45.42;100941.06;6247584;22;20072;-86
2021/08/25 11:12:43;;;;;;;5.78;3.50;;;;;;;21.69;45.23;100932.72;6261776;23;20012;-83
2021/08/25 11:15:15;;;;;;;5.00;3.33;;;;;;;21.84;44.41;100923.31;6258064;23;20024;-82
2021/08/25 11:17:55;;;;;;;4.50;3.15;;;;;;;21.89;43.44;100918.38;6259649;23;20066;-83
2021/08/25 11:20:23;;;;;;;;;;;;;;;21.74;44.07;100916.97;6254389;22;20020;-83
2021/08/25 11:22:57;;;;;;;6.30;3.17;;;;;;;21.49;43.96;100918.22;6249544;22;19926;-82
2021/08/25 11:25:24;;;;;;;5.65;3.35;;;;;;;21.41;44.88;100919.88;6252902;22;20438;-81
2021/08/25 11:27:52;;;;;;;6.25;3.65;;;;;;;21.57;44.17;100913.03;6254168;22;20044;-82
2021/08/25 11:30:24;;;;;;;8.00;3.95;;;;;;;21.49;44.23;100909.28;6256870;22;20024;-81
2021/08/25 11:33:28;;;;;;;6.05;3.60;;;;;;;21.57;45.23;100906.78;6257552;23;20027;-80
2021/08/25 11:36:02;;;;;;;4.70;3.30;;;;;;;21.76;44.74;100898.00;6259352;22;20026;-81
2021/08/25 11:38:36;;;;;;;5.95;3.38;;;;;;;21.90;44.08;100895.81;6261465;22;20060;-81